Hovedside
METAR-TAF:

METAR-TAF

Lufthavner :

Utti lufthavn

Utti, Finland

breddegrad: 60-54N, lengdegrad: 026-56E, høyde over havet: 100 m

Gjeldene værobservasjon

Denne rapporten ble laget for 29 minutter siden, klokken 06:50 UTC
Vind 10 kt fra Vest-sørvest
Temperatur 13°C
Luftfuktighet 47%
Trykk 1028 hPa
Sikt 10 km eller mer
ingen skyer under 1500 m og ingen bygeskyer

METAR: EFUT 230650Z 25010KT CAVOK 13/02 Q1028

Tid: 10:19 (07:19 UTC)

Varsel

Denne rapporten ble laget for 1 time og 44 minutter siden, klokken 05:35 UTC
Varsel gyldig fra 23. klokken 06 UTC til 23. klokken 15 UTC
Vind 7 kt fra Vest-sørvest
Sikt 10 km eller mer
ingen skyer under 1500 m og ingen bygeskyer
Midlertidig
fra 23. klokken 09 UTC til 23. klokken 12 UTC
Vind 10 kt fra Vest-sørvest med vindkast opp mot 21 kt

TAF: EFUT 230535Z 2306/2315 24007KT CAVOK TEMPO 2309/2312 25010G21KT

Værobservasjoner og værvarsel for over 4000 flyplasser (METAR- og TAF-rapporter).

Tilgjengelige stasjoner er representert av de røde og gule prikkene på kartet.

Hold musepekeren over prikken for å se navnet på stasjonen.

Klikk så for å se værobservasjoner og -varsler.

For å forandre kartet kan du klikke på den grønne knappen med svart kryss for å zoome inn, på den grønne knappen med strek for å zoome ut, eller på de grønne pilene for å se tilstøtende kart.


METAR-TAF: